Happy, Texas
Current Conditions -  °F | °C
As of 10:35 AM on Saturday 20 Dec 2014 (Local Time) from KHRX Reporting Station
Scattered Clouds Scattered Clouds  
Wind Chill: 29°   Ceiling: Unl
Heat Index: 35°   Visibility: 10mi
Dew Point: 32°   Wind: 7mph
Humidity: 89%   Direction: 200°SSW
Pressure: 30.12"   Gusts: NA
Location:  34.74°N, 101.85°W
Report Text: KHRX 201635Z AUTO 20006KT 10SM SCT005 02/00 A3012 RMK AO2 T00160000
Loading
Personal Weather Stations






























Interactive Weather Map New forecast layout! Learn more

10-Day Weather Forecast

Advertisements
Track Severe Weather on mobile